NCAR-RAP Real-Time Weather Data

Output produced by METARs form (23 April 2019  08:59 UTC)
found at http://weather.rap.ucar.edu/surface/
 
RJKA 230837Z 16023KT 3500 -SHRA FEW004 BKN007 BKN010 FEW015CB 22/22 Q1009 RMK 1ST004 6ST007 7CU010 1CB015 A2981 CB 30KM W MOV NE